This is the latest recevied weather packets stored in our database for station/object SQ8AQL-16. If no packets are shown the sender has not sent any weather packets the latest 10 day(s).
| Time | Temp. | Humidity | Pressure | Rain* | Wind** | Luminosity | Snow |
|---|---|---|---|---|---|---|---|
| 1776971229 | 12.22° C | 48% | 1015 hPa | - | - | - | - |
| 1776970329 | 12.22° C | 47% | 1015 hPa | - | - | - | - |
| 1776969427 | 12.78° C | 46% | 1014.9 hPa | - | - | - | - |
| 1776968527 | 12.78° C | 45% | 1014.9 hPa | - | - | - | - |
| 1776967626 | 13.33° C | 43% | 1014.5 hPa | - | - | - | - |
| 1776966724 | 13.89° C | 41% | 1014.4 hPa | - | - | - | - |
| 1776965823 | 14.44° C | 39% | 1014.4 hPa | - | - | 3 W/m² | - |
| 1776964922 | 15.56° C | 38% | 1014.4 hPa | - | - | 5 W/m² | - |
| 1776964020 | 16.11° C | 37% | 1014.3 hPa | - | - | 14 W/m² | - |
| 1776963119 | 16.67° C | 35% | 1014.1 hPa | - | - | 27 W/m² | - |
| 1776962218 | 17.22° C | 33% | 1014.1 hPa | - | - | 29 W/m² | - |
| 1776961317 | 19.44° C | 29% | 1014 hPa | - | - | 46 W/m² | - |
| 1776960416 | 21.11° C | 26% | 1014.1 hPa | - | - | 131 W/m² | - |
| 1776959515 | 21.11° C | 27% | 1014.1 hPa | - | - | 83 W/m² | - |
| 1776958614 | 20.56° C | 26% | 1014.1 hPa | - | - | 82 W/m² | - |
| 1776957713 | 21.11° C | 27% | 1014.2 hPa | - | - | 84 W/m² | - |
| 1776956808 | 22.78° C | 24% | 1014.2 hPa | - | - | 165 W/m² | - |
| 1776955906 | 21.11° C | 27% | 1014.2 hPa | - | - | 284 W/m² | - |
| 1776955005 | 22.78° C | 24% | 1014.1 hPa | - | - | 373 W/m² | - |
| 1776954104 | 25° C | 22% | 1014 hPa | - | - | 100 W/m² | - |
| 1776953203 | 22.22° C | 24% | 1013.9 hPa | - | - | 555 W/m² | - |
| 1776952301 | 22.22° C | 24% | 1014.1 hPa | - | - | 555 W/m² | - |
| 1776951400 | 22.22° C | 24% | 1014.1 hPa | - | - | 555 W/m² | - |
| 1776950499 | 21.67° C | 26% | 1014.2 hPa | - | - | 575 W/m² | - |
| 1776949598 | 22.78° C | 25% | 1014.2 hPa | - | - | 102 W/m² | - |
* Rain since midnight (hover to see other rain measurements)
** Current wind speed in m/s (hover to see current wind gust speed)